createdAt,value
2023-06-01T00:02:13.394Z,20.76
2023-06-01T00:04:41.784Z,20.33
2023-06-01T00:07:09.604Z,19.44
2023-06-01T00:09:36.110Z,19.29
2023-06-01T00:12:03.380Z,19.93
2023-06-01T00:14:30.015Z,19.66
2023-06-01T00:16:57.511Z,20.44
2023-06-01T00:19:27.012Z,20.80
2023-06-01T00:21:58.300Z,19.90
2023-06-01T00:24:26.761Z,19.30
2023-06-01T00:26:53.279Z,19.98
2023-06-01T00:29:19.700Z,19.89
2023-06-01T00:31:46.205Z,20.53
2023-06-01T00:34:13.090Z,20.31
2023-06-01T00:36:39.718Z,19.99
2023-06-01T00:39:06.162Z,21.22
2023-06-01T00:41:34.026Z,20.43
2023-06-01T00:44:00.696Z,20.43
2023-06-01T00:46:28.110Z,20.25
2023-06-01T00:48:55.257Z,19.69
2023-06-01T00:51:21.932Z,20.19
2023-06-01T00:53:49.186Z,20.68
2023-06-01T00:56:15.640Z,21.04
2023-06-01T00:58:42.355Z,19.79
2023-06-01T01:01:19.316Z,19.45
2023-06-01T01:03:50.980Z,20.50
2023-06-01T01:06:29.426Z,19.83
2023-06-01T01:09:09.435Z,20.11
2023-06-01T01:11:38.267Z,20.19
2023-06-01T01:14:21.979Z,21.11
2023-06-01T01:17:16.988Z,20.80
2023-06-01T01:20:09.345Z,20.43
2023-06-01T01:22:42.337Z,20.54
2023-06-01T01:25:36.645Z,20.75
2023-06-01T01:28:33.854Z,21.03
2023-06-01T01:31:01.425Z,20.88
2023-06-01T01:33:28.596Z,20.52
2023-06-01T01:35:55.903Z,20.66
2023-06-01T01:38:22.354Z,20.37
2023-06-01T01:40:50.732Z,21.05
2023-06-01T01:43:17.290Z,20.87
2023-06-01T01:45:44.035Z,21.13
2023-06-01T01:48:24.429Z,21.51
2023-06-01T01:50:53.359Z,21.36
2023-06-01T01:53:21.114Z,20.70
2023-06-01T01:55:49.847Z,20.57
2023-06-01T01:58:16.430Z,20.48
2023-06-01T02:00:44.454Z,20.35
2023-06-01T02:03:15.953Z,20.76
2023-06-01T02:05:42.435Z,21.11
2023-06-01T02:08:08.901Z,20.62
2023-06-01T02:10:35.346Z,20.72
2023-06-01T02:13:01.773Z,21.51
2023-06-01T02:15:28.414Z,21.59
2023-06-01T02:17:54.952Z,21.04
2023-06-01T02:20:21.603Z,21.35
2023-06-01T02:22:48.030Z,20.72
2023-06-01T02:25:14.597Z,19.66
2023-06-01T02:27:41.031Z,20.37
2023-06-01T02:30:08.666Z,21.14
2023-06-01T02:32:35.830Z,20.85
2023-06-01T02:35:02.349Z,21.58
2023-06-01T02:37:28.918Z,20.54
2023-06-01T02:39:55.501Z,20.22
2023-06-01T02:42:21.931Z,19.85
2023-06-01T02:44:48.507Z,20.82
2023-06-01T02:47:14.927Z,20.90
2023-06-01T02:49:41.562Z,21.02
2023-06-01T02:52:08.041Z,20.65
2023-06-01T02:54:34.474Z,20.77
2023-06-01T02:57:00.872Z,21.20
2023-06-01T02:59:27.327Z,21.22
2023-06-01T03:01:53.954Z,21.10
2023-06-01T03:04:21.686Z,21.44
2023-06-01T03:06:50.433Z,21.49
2023-06-01T03:09:17.011Z,21.52
2023-06-01T03:11:43.570Z,21.09
2023-06-01T03:14:10.015Z,20.55
2023-06-01T03:16:36.460Z,20.05
2023-06-01T03:19:03.041Z,20.93
2023-06-01T03:21:29.770Z,20.68
2023-06-01T03:23:56.265Z,19.43
2023-06-01T03:26:22.734Z,20.16
2023-06-01T03:28:49.204Z,20.14
2023-06-01T03:31:16.829Z,21.12
2023-06-01T03:33:43.366Z,21.20
2023-06-01T03:36:09.834Z,20.92
2023-06-01T03:38:36.257Z,20.35
2023-06-01T03:41:02.911Z,20.44
2023-06-01T03:43:29.503Z,20.30
2023-06-01T03:45:57.096Z,19.74
2023-06-01T03:48:23.526Z,20.98
2023-06-01T03:50:49.978Z,20.35
2023-06-01T03:53:16.439Z,21.00
2023-06-01T03:55:42.911Z,21.55
2023-06-01T03:58:09.502Z,20.84
2023-06-01T04:00:37.243Z,20.64
2023-06-01T04:03:05.380Z,20.02
2023-06-01T04:05:32.903Z,20.95
2023-06-01T04:07:59.606Z,20.44
2023-06-01T04:10:26.076Z,21.05
2023-06-01T04:12:52.700Z,21.24
2023-06-01T04:15:21.065Z,20.90
2023-06-01T04:17:47.714Z,20.96
2023-06-01T04:20:16.786Z,20.11
2023-06-01T04:22:44.073Z,20.32
2023-06-01T04:25:18.429Z,21.13
2023-06-01T04:27:47.124Z,21.23
2023-06-01T04:30:14.504Z,20.49
2023-06-01T04:32:41.258Z,20.42
2023-06-01T04:35:09.112Z,20.35
2023-06-01T04:37:36.712Z,20.11
2023-06-01T04:40:10.620Z,20.09
2023-06-01T04:42:42.383Z,19.44
2023-06-01T04:45:10.426Z,20.81
2023-06-01T04:47:41.255Z,19.82
2023-06-01T04:50:09.663Z,20.39
2023-06-01T04:52:39.343Z,19.98
2023-06-01T04:55:06.860Z,20.30
2023-06-01T04:57:36.567Z,19.87
2023-06-01T05:00:13.221Z,20.75
2023-06-01T05:02:41.245Z,20.79
2023-06-01T05:05:09.027Z,21.45
2023-06-01T05:07:37.718Z,20.58
2023-06-01T05:10:07.053Z,21.57
2023-06-01T05:12:34.310Z,20.67
2023-06-01T05:15:01.753Z,20.90
2023-06-01T05:17:28.210Z,21.05
2023-06-01T05:19:54.758Z,21.21
2023-06-01T05:22:21.322Z,21.31
2023-06-01T05:24:47.853Z,21.90
2023-06-01T05:27:14.288Z,20.59
2023-06-01T05:29:41.172Z,21.15
2023-06-01T05:32:08.215Z,20.72
2023-06-01T05:34:34.797Z,21.28
2023-06-01T05:37:02.270Z,21.49
2023-06-01T05:39:29.454Z,20.58
2023-06-01T05:41:56.741Z,21.21
2023-06-01T05:44:23.221Z,20.54
2023-06-01T05:46:50.469Z,20.56
2023-06-01T05:49:16.903Z,20.28
2023-06-01T05:51:44.149Z,20.38
2023-06-01T05:54:11.225Z,20.15
2023-06-01T05:56:38.415Z,20.68
2023-06-01T05:59:04.955Z,20.82
2023-06-01T06:01:31.630Z,21.18
2023-06-01T06:03:58.363Z,20.15
2023-06-01T06:06:25.564Z,19.74
2023-06-01T06:08:52.831Z,19.70
2023-06-01T06:11:19.607Z,20.29
2023-06-01T06:13:46.922Z,20.96
2023-06-01T06:16:13.372Z,21.32
2023-06-01T06:18:39.810Z,21.63
2023-06-01T06:21:06.290Z,20.77
2023-06-01T06:23:33.766Z,20.64
2023-06-01T06:26:00.424Z,20.58
2023-06-01T06:28:27.718Z,20.31
2023-06-01T06:30:54.119Z,20.80
2023-06-01T06:33:20.644Z,21.20
2023-06-01T06:35:47.214Z,20.79
2023-06-01T06:38:14.899Z,20.41
2023-06-01T06:40:41.324Z,20.57
2023-06-01T06:43:07.769Z,20.00
2023-06-01T06:45:34.382Z,20.92
2023-06-01T06:48:00.932Z,21.31
2023-06-01T06:50:27.684Z,21.39
2023-06-01T06:52:54.250Z,21.41
2023-06-01T06:55:21.705Z,21.43
2023-06-01T06:57:48.169Z,20.46
2023-06-01T07:00:15.621Z,20.96
2023-06-01T07:02:46.299Z,21.35
2023-06-01T07:05:12.956Z,20.20
2023-06-01T07:07:41.194Z,20.31
2023-06-01T07:10:08.514Z,21.17
2023-06-01T07:12:35.097Z,21.51
2023-06-01T07:15:02.704Z,21.60
2023-06-01T07:17:29.145Z,22.33
2023-06-01T07:19:55.650Z,22.10
2023-06-01T07:22:22.365Z,21.68
2023-06-01T07:24:49.075Z,22.12
2023-06-01T07:27:15.617Z,21.66
2023-06-01T07:29:42.373Z,21.89
2023-06-01T07:32:08.966Z,21.40
2023-06-01T07:34:35.530Z,21.67
2023-06-01T07:37:15.990Z,22.11
2023-06-01T07:39:43.926Z,22.07
2023-06-01T07:42:10.532Z,21.59
2023-06-01T07:44:37.111Z,21.71
2023-06-01T07:47:03.751Z,22.13
2023-06-01T07:49:30.411Z,22.22
2023-06-01T07:51:57.784Z,21.51
2023-06-01T07:54:24.210Z,21.85
2023-06-01T07:56:51.118Z,22.45
2023-06-01T07:59:17.564Z,22.03
2023-06-01T08:01:44.035Z,21.89
2023-06-01T08:04:11.710Z,21.69
2023-06-01T08:06:39.360Z,22.76
2023-06-01T08:09:06.726Z,22.74
2023-06-01T08:11:33.305Z,22.68
2023-06-01T08:14:04.113Z,22.89
2023-06-01T08:16:31.165Z,22.09
2023-06-01T08:18:57.868Z,22.05
2023-06-01T08:21:26.155Z,22.65
2023-06-01T08:23:55.769Z,22.77
2023-06-01T08:26:23.170Z,22.89
2023-06-01T08:28:52.765Z,22.99
2023-06-01T08:31:20.692Z,22.29
2023-06-01T08:33:48.206Z,22.31
2023-06-01T08:36:14.717Z,22.54
2023-06-01T08:38:41.580Z,23.10
2023-06-01T08:41:27.662Z,23.71
2023-06-01T08:44:03.466Z,23.54
2023-06-01T08:46:32.872Z,24.26
2023-06-01T08:49:00.073Z,23.31
2023-06-01T08:51:27.030Z,23.47
2023-06-01T08:53:55.327Z,23.11
2023-06-01T08:56:22.902Z,23.36
2023-06-01T08:58:51.205Z,23.73
2023-06-01T09:01:25.091Z,23.11
2023-06-01T09:03:52.643Z,22.98
2023-06-01T09:06:19.249Z,23.16
2023-06-01T09:08:46.426Z,23.61
2023-06-01T09:11:13.022Z,22.52
2023-06-01T09:13:40.471Z,22.33
2023-06-01T09:16:07.487Z,22.92
2023-06-01T09:18:34.222Z,22.89
2023-06-01T09:21:13.984Z,22.59
2023-06-01T09:23:40.930Z,22.51
2023-06-01T09:26:09.249Z,22.61
2023-06-01T09:29:08.350Z,22.84
2023-06-01T09:31:44.657Z,23.13
2023-06-01T09:34:12.852Z,22.69
2023-06-01T09:36:40.705Z,22.86
2023-06-01T09:39:09.101Z,22.51
2023-06-01T09:41:45.687Z,22.97
2023-06-01T09:44:13.020Z,23.10
2023-06-01T09:46:52.574Z,23.04
2023-06-01T09:49:25.917Z,23.02
2023-06-01T09:52:16.405Z,22.33
2023-06-01T09:54:45.195Z,22.99
2023-06-01T09:57:13.172Z,23.23
2023-06-01T09:59:47.157Z,22.99
2023-06-01T10:02:17.466Z,23.56
2023-06-01T10:04:53.681Z,23.50
2023-06-01T10:07:21.490Z,23.82
2023-06-01T10:09:54.809Z,23.76
2023-06-01T10:12:22.088Z,24.14
2023-06-01T10:14:49.403Z,23.94
2023-06-01T10:17:17.578Z,23.02
2023-06-01T10:19:44.232Z,23.44
2023-06-01T10:22:12.800Z,23.64
2023-06-01T10:24:42.516Z,24.01
2023-06-01T10:27:31.382Z,24.79
2023-06-01T10:29:57.863Z,24.45
2023-06-01T10:32:43.362Z,24.91
2023-06-01T10:35:11.749Z,23.70
2023-06-01T10:37:38.354Z,22.60
2023-06-01T10:40:17.019Z,23.79
2023-06-01T10:42:43.971Z,24.04
2023-06-01T10:45:36.307Z,23.45
2023-06-01T10:48:04.446Z,24.39
2023-06-01T10:50:31.018Z,23.11
2023-06-01T10:52:58.315Z,23.76
2023-06-01T10:55:26.940Z,23.43
2023-06-01T10:58:23.404Z,23.52
2023-06-01T11:00:50.252Z,22.98
2023-06-01T11:03:17.111Z,24.10
2023-06-01T11:05:48.503Z,24.15
2023-06-01T11:08:17.894Z,23.98
2023-06-01T11:11:00.777Z,24.25
2023-06-01T11:13:30.941Z,24.56
2023-06-01T11:16:11.012Z,24.73
2023-06-01T11:18:45.067Z,23.44
2023-06-01T11:21:17.599Z,22.40
2023-06-01T11:23:46.328Z,23.42
2023-06-01T11:26:17.014Z,24.24
2023-06-01T11:28:43.937Z,24.65
2023-06-01T11:31:12.072Z,25.10
2023-06-01T11:33:41.992Z,24.66
2023-06-01T11:36:09.124Z,24.41
2023-06-01T11:38:39.578Z,23.82
2023-06-01T11:41:07.269Z,24.02
2023-06-01T11:43:34.453Z,23.90
2023-06-01T11:46:10.405Z,24.97
2023-06-01T11:49:06.525Z,24.82
2023-06-01T11:51:35.406Z,25.42
2023-06-01T11:54:02.448Z,23.65
2023-06-01T11:56:30.604Z,24.36
2023-06-01T11:59:01.288Z,24.24
2023-06-01T12:01:28.636Z,24.04
2023-06-01T12:03:58.574Z,23.86
2023-06-01T12:06:28.428Z,24.45
2023-06-01T12:08:56.456Z,23.77
2023-06-01T12:11:29.035Z,23.72
2023-06-01T12:13:56.501Z,23.52
2023-06-01T12:16:23.766Z,22.51
2023-06-01T12:18:50.556Z,23.00
2023-06-01T12:21:18.406Z,22.81
2023-06-01T12:23:52.493Z,23.16
2023-06-01T12:26:19.214Z,23.25
2023-06-01T12:28:59.952Z,23.99
2023-06-01T12:31:27.569Z,24.03
2023-06-01T12:33:55.088Z,24.04
2023-06-01T12:36:35.543Z,24.24
2023-06-01T12:39:07.122Z,23.54
2023-06-01T12:41:33.746Z,24.04
2023-06-01T12:44:00.462Z,24.36
2023-06-01T12:46:36.623Z,23.69
2023-06-01T12:49:20.644Z,23.41
2023-06-01T12:51:47.867Z,24.39
2023-06-01T12:54:14.417Z,23.76
2023-06-01T12:56:41.257Z,23.86
2023-06-01T12:59:07.783Z,23.92
2023-06-01T13:01:34.427Z,24.27
2023-06-01T13:04:01.511Z,24.02
2023-06-01T13:06:28.715Z,24.23
2023-06-01T13:08:55.210Z,23.74
2023-06-01T13:11:24.026Z,23.91
2023-06-01T13:13:50.524Z,24.62
2023-06-01T13:16:17.019Z,24.60
2023-06-01T13:18:45.506Z,24.56
2023-06-01T13:21:11.956Z,24.59
2023-06-01T13:23:38.477Z,24.95
2023-06-01T13:26:05.182Z,25.13
2023-06-01T13:28:31.798Z,24.37
2023-06-01T13:30:58.217Z,23.82
2023-06-01T13:33:25.001Z,23.76
2023-06-01T13:35:51.400Z,23.22
2023-06-01T13:38:18.118Z,23.27
2023-06-01T13:40:45.033Z,22.78
2023-06-01T13:43:11.724Z,23.09
2023-06-01T13:45:38.209Z,22.80
2023-06-01T13:48:04.867Z,23.47
2023-06-01T13:50:32.060Z,23.51
2023-06-01T13:52:58.653Z,23.90
2023-06-01T13:55:26.246Z,24.18
2023-06-01T13:57:52.777Z,24.35
2023-06-01T14:00:20.328Z,25.31
2023-06-01T14:02:48.942Z,25.10
2023-06-01T14:05:21.447Z,24.84
2023-06-01T14:07:50.252Z,24.52
2023-06-01T14:10:18.063Z,24.36
2023-06-01T14:12:44.575Z,24.20
2023-06-01T14:15:11.502Z,25.17
2023-06-01T14:17:38.059Z,24.64
2023-06-01T14:20:05.964Z,24.29
2023-06-01T14:22:32.798Z,23.87
2023-06-01T14:24:59.567Z,24.59
2023-06-01T14:27:26.264Z,24.52
2023-06-01T14:29:52.778Z,25.31
2023-06-01T14:32:19.252Z,25.48
2023-06-01T14:34:45.768Z,24.99
2023-06-01T14:37:13.166Z,25.30
2023-06-01T14:39:39.683Z,25.09
2023-06-01T14:42:06.418Z,24.59
2023-06-01T14:44:32.913Z,24.70
2023-06-01T14:47:00.562Z,24.73
2023-06-01T14:49:38.988Z,23.91
2023-06-01T14:52:09.734Z,24.07
2023-06-01T14:54:38.132Z,24.34
2023-06-01T14:57:05.179Z,24.61
2023-06-01T14:59:31.637Z,24.75
2023-06-01T15:01:58.081Z,24.90
2023-06-01T15:04:25.945Z,24.78
2023-06-01T15:06:52.665Z,23.75
2023-06-01T15:09:19.177Z,23.89
2023-06-01T15:11:45.672Z,23.60
2023-06-01T15:14:12.135Z,24.44
2023-06-01T15:16:40.438Z,24.82
2023-06-01T15:19:08.279Z,25.23
2023-06-01T15:21:34.800Z,25.12
2023-06-01T15:24:01.421Z,25.35
2023-06-01T15:26:28.066Z,24.53
2023-06-01T15:28:54.681Z,24.61
2023-06-01T15:31:22.533Z,24.44
2023-06-01T15:33:49.037Z,24.75
2023-06-01T15:36:15.433Z,25.22
2023-06-01T15:38:42.084Z,23.94
2023-06-01T15:41:08.650Z,24.83
2023-06-01T15:43:38.783Z,24.40
2023-06-01T15:46:06.583Z,24.30
2023-06-01T15:48:33.345Z,23.18
2023-06-01T15:50:59.782Z,24.23
2023-06-01T15:53:26.251Z,24.13
2023-06-01T15:55:52.698Z,23.95
2023-06-01T15:58:19.426Z,24.85
2023-06-01T16:00:45.983Z,24.26
2023-06-01T16:03:12.616Z,23.87
2023-06-01T16:05:39.031Z,24.96
2023-06-01T16:08:05.559Z,24.63
2023-06-01T16:10:31.994Z,24.08
2023-06-01T16:12:58.681Z,23.28
2023-06-01T16:15:25.136Z,24.01
2023-06-01T16:17:51.654Z,23.31
2023-06-01T16:20:18.193Z,23.93
2023-06-01T16:22:44.843Z,23.93
2023-06-01T16:25:11.354Z,23.89
2023-06-01T16:27:37.895Z,23.73
2023-06-01T16:30:04.917Z,23.34
2023-06-01T16:32:31.460Z,24.31
2023-06-01T16:34:58.110Z,23.81
2023-06-01T16:37:24.589Z,23.49
2023-06-01T16:39:51.081Z,23.28
2023-06-01T16:42:17.698Z,24.11
2023-06-01T16:44:44.217Z,22.71
2023-06-01T16:47:10.797Z,23.01
2023-06-01T16:49:37.238Z,22.72
2023-06-01T16:52:03.978Z,22.72
2023-06-01T16:54:31.206Z,21.88
2023-06-01T16:56:57.773Z,22.42
2023-06-01T16:59:24.390Z,22.86
2023-06-01T17:01:51.054Z,23.04
2023-06-01T17:04:17.571Z,23.00
2023-06-01T17:06:44.017Z,23.19
2023-06-01T17:09:13.249Z,23.04
2023-06-01T17:11:39.692Z,22.98
2023-06-01T17:14:06.183Z,22.51
2023-06-01T17:16:32.747Z,22.89
2023-06-01T17:18:59.279Z,22.66
2023-06-01T17:21:25.918Z,22.60
2023-06-01T17:23:52.478Z,22.71
2023-06-01T17:26:21.439Z,22.54
2023-06-01T17:28:47.948Z,22.20
2023-06-01T17:31:14.545Z,22.25
2023-06-01T17:33:40.994Z,22.45
2023-06-01T17:36:07.637Z,23.28
2023-06-01T17:38:34.138Z,21.55
2023-06-01T17:41:00.724Z,22.01
2023-06-01T17:43:27.342Z,21.21
2023-06-01T17:45:53.771Z,21.24
2023-06-01T17:48:21.377Z,21.11
2023-06-01T17:50:47.909Z,21.06
2023-06-01T17:53:34.412Z,20.69
2023-06-01T17:56:02.053Z,21.20
2023-06-01T17:58:30.132Z,20.91
2023-06-01T18:00:56.630Z,21.10
2023-06-01T18:03:23.100Z,20.48
2023-06-01T18:05:49.595Z,21.40
2023-06-01T18:08:16.092Z,22.35
2023-06-01T18:10:42.534Z,21.60
2023-06-01T18:13:09.846Z,20.17
2023-06-01T18:15:36.504Z,20.17
2023-06-01T18:18:03.265Z,21.01
2023-06-01T18:20:29.752Z,20.64
2023-06-01T18:22:56.206Z,20.05
2023-06-01T18:25:22.694Z,20.24
2023-06-01T18:27:49.130Z,21.48
2023-06-01T18:30:15.627Z,20.97
2023-06-01T18:32:42.061Z,20.20
2023-06-01T18:35:08.654Z,21.25
2023-06-01T18:37:35.110Z,21.45
2023-06-01T18:40:01.539Z,20.11
2023-06-01T18:42:27.977Z,20.89
2023-06-01T18:44:54.409Z,21.10
2023-06-01T18:47:21.285Z,21.49
2023-06-01T18:49:48.507Z,21.34
2023-06-01T18:52:14.981Z,21.12
2023-06-01T18:54:41.484Z,21.79
2023-06-01T18:57:08.101Z,21.86
2023-06-01T18:59:34.732Z,22.11
2023-06-01T19:02:01.309Z,21.83
2023-06-01T19:04:28.173Z,21.40
2023-06-01T19:06:55.055Z,21.80
2023-06-01T19:09:21.857Z,22.43
2023-06-01T19:11:48.358Z,22.16
2023-06-01T19:14:16.288Z,22.64
2023-06-01T19:16:42.905Z,22.03
2023-06-01T19:19:09.688Z,21.31
2023-06-01T19:21:36.715Z,21.11
2023-06-01T19:24:06.769Z,21.08
2023-06-01T19:26:34.254Z,21.83
2023-06-01T19:29:03.260Z,21.19
2023-06-01T19:31:34.172Z,21.43
2023-06-01T19:34:01.329Z,20.86
2023-06-01T19:36:43.926Z,21.42
2023-06-01T19:39:14.283Z,21.43
2023-06-01T19:41:42.807Z,21.71
2023-06-01T19:44:13.261Z,22.07
2023-06-01T19:46:39.730Z,22.24
2023-06-01T19:49:06.212Z,22.26
2023-06-01T19:51:33.112Z,20.79
2023-06-01T19:54:00.005Z,20.88
2023-06-01T19:56:38.419Z,21.30
2023-06-01T19:59:06.006Z,20.71
2023-06-01T20:01:37.341Z,21.20
2023-06-01T20:04:04.923Z,21.00
2023-06-01T20:06:32.018Z,20.88
2023-06-01T20:09:06.417Z,20.60
2023-06-01T20:11:33.328Z,21.14
2023-06-01T20:13:59.769Z,20.57
2023-06-01T20:16:26.342Z,20.80
2023-06-01T20:18:52.801Z,21.16
2023-06-01T20:21:19.266Z,21.41
2023-06-01T20:23:45.705Z,20.96
2023-06-01T20:26:12.192Z,21.30
2023-06-01T20:28:58.310Z,20.31
2023-06-01T20:31:25.918Z,20.94
2023-06-01T20:33:53.549Z,20.64
2023-06-01T20:36:28.401Z,20.68
2023-06-01T20:38:56.105Z,20.43
2023-06-01T20:41:24.767Z,20.98
2023-06-01T20:43:54.983Z,21.16
2023-06-01T20:46:24.883Z,20.83
2023-06-01T20:48:55.844Z,20.75
2023-06-01T20:51:36.543Z,19.92
2023-06-01T20:54:16.990Z,20.90
2023-06-01T20:56:47.894Z,20.34
2023-06-01T20:59:24.838Z,21.36
2023-06-01T21:01:53.228Z,20.88
2023-06-01T21:04:21.880Z,19.86
2023-06-01T21:06:48.485Z,20.55
2023-06-01T21:09:15.112Z,20.90
2023-06-01T21:11:43.749Z,21.41
2023-06-01T21:14:11.021Z,20.90
2023-06-01T21:16:38.171Z,20.57
2023-06-01T21:19:04.848Z,21.02
2023-06-01T21:21:31.637Z,20.58
2023-06-01T21:23:58.198Z,20.68
2023-06-01T21:26:24.825Z,21.42
2023-06-01T21:28:51.670Z,21.21
2023-06-01T21:31:18.600Z,20.95
2023-06-01T21:33:46.212Z,21.22
2023-06-01T21:36:13.674Z,20.33
2023-06-01T21:38:40.560Z,20.28
2023-06-01T21:41:07.096Z,20.60
2023-06-01T21:43:33.655Z,21.01
2023-06-01T21:46:00.533Z,20.28
2023-06-01T21:48:29.850Z,20.52
2023-06-01T21:50:56.495Z,19.90
2023-06-01T21:53:23.974Z,21.03
2023-06-01T21:55:51.452Z,19.78
2023-06-01T21:58:24.483Z,20.58
2023-06-01T22:00:51.742Z,21.08
2023-06-01T22:03:20.272Z,20.74
2023-06-01T22:05:47.079Z,21.89
2023-06-01T22:08:13.900Z,21.34
2023-06-01T22:10:40.435Z,20.70
2023-06-01T22:13:06.955Z,20.62
2023-06-01T22:15:33.662Z,20.61
2023-06-01T22:18:01.392Z,21.13
2023-06-01T22:20:28.001Z,21.43
2023-06-01T22:22:54.736Z,20.98
2023-06-01T22:25:21.250Z,20.33
2023-06-01T22:27:47.868Z,20.67
2023-06-01T22:30:14.511Z,20.72
2023-06-01T22:35:25.088Z,20.83
2023-06-01T22:37:51.618Z,19.98
2023-06-01T22:40:18.144Z,20.85
2023-06-01T22:42:44.827Z,21.29
2023-06-01T22:45:11.414Z,21.45
2023-06-01T22:47:37.922Z,20.69
2023-06-01T22:50:05.103Z,21.20
2023-06-01T22:52:31.694Z,20.21
2023-06-01T22:54:58.820Z,21.07
2023-06-01T22:57:25.382Z,20.93
2023-06-01T22:59:52.034Z,20.10
2023-06-01T23:02:19.684Z,20.48
2023-06-01T23:04:46.356Z,20.59
2023-06-01T23:07:14.282Z,21.17
2023-06-01T23:09:41.566Z,21.15
2023-06-01T23:12:08.505Z,21.39
2023-06-01T23:14:35.053Z,21.12
2023-06-01T23:17:04.500Z,21.48
2023-06-01T23:19:32.946Z,21.11
2023-06-01T23:22:06.624Z,20.33
2023-06-01T23:24:33.490Z,21.31
2023-06-01T23:27:00.869Z,21.56
2023-06-01T23:29:28.090Z,21.08
2023-06-01T23:31:54.764Z,21.41
2023-06-01T23:34:21.477Z,21.42
2023-06-01T23:36:50.097Z,21.72
2023-06-01T23:39:16.633Z,21.92
2023-06-01T23:41:43.094Z,21.86
2023-06-01T23:44:09.570Z,21.77
2023-06-01T23:46:36.038Z,22.19
2023-06-01T23:49:02.529Z,22.00
2023-06-01T23:51:28.994Z,21.46
2023-06-01T23:53:55.656Z,22.14
2023-06-01T23:56:22.862Z,22.23
2023-06-01T23:58:49.347Z,22.09
